Xun Long 5 — BYGW — position and weather

sailwx.info

Track history (hours):
 
Tides and Currents Weather Stations Pressure Air Temp Water Temp Dewpoint Dewpoint Depression Visibility Wind Speed Wind Dir Waves Ship Positions

Xun Long 5

Last reported at 2017-Sep-21 06:34 UTC. Time now 2017-Sep-21 17:39 UTC.
Position N 22°05' E 113°16'.

Length 34 m; draft 1.4 m.

Type: High speed craft. MMSI: 413471870.

Date/timePositionNaut miles runAvg speedWind from/ knotsBaromVisibWave heightAir tempDewpointWater temp
2017-Sep-21 06:34N 22°05' E 113°16'0 0.0
2017-Sep-21 03:52N 22°05' E 113°16'0 0.0
2017-Sep-21 03:13N 22°05' E 113°16'0 0.0
2017-Sep-21 02:58N 22°05' E 113°16'0 0.0
2017-Sep-21 02:28N 22°05' E 113°16'0 0.0
2017-Sep-20 22:55N 22°05' E 113°16'0 0.0
2017-Sep-20 22:25N 22°05' E 113°16'0 0.0
2017-Sep-20 11:59N 22°05' E 113°16'  
2017-Sep-17 05:23N 22°19' E 114°08'2 5.2
2017-Sep-17 05:00N 22°17' E 114°09'18 1.1
2017-Sep-16 12:51N 22°26' E 113°52'1123.6
2017-Sep-16 12:24N 22°36' E 113°49'513.2
2017-Sep-16 12:00N 22°32' E 113°46'1810.0
2017-Sep-16 10:13N 22°15' E 113°38'2315.8
2017-Sep-16 08:46N 22°36' E 113°48'725.2
2017-Sep-16 08:29N 22°30' E 113°45'7 2.5
2017-Sep-16 05:50N 22°36' E 113°48'4 1.7
2017-Sep-16 03:15N 22°32' E 113°46'411.2
2017-Sep-16 02:51N 22°36' E 113°48'1925.7
2017-Sep-16 02:08N 22°19' E 113°40'19 1.3
2017-Sep-15 12:09N 22°36' E 113°48'425.7
2017-Sep-15 12:00N 22°32' E 113°47'4 1.3
2017-Sep-15 08:55N 22°36' E 113°48'1 0.3
2017-Sep-15 06:07N 22°35' E 113°48'1 2.8
2017-Sep-15 05:53N 22°36' E 113°48'3 1.0
2017-Sep-15 02:51N 22°33' E 113°47'2 0.1
2017-Sep-14 09:30N 22°32' E 113°47'1512.4
2017-Sep-14 08:17N 22°18' E 113°39'16 6.5
2017-Sep-14 05:49N 22°33' E 113°47'1 0.5
2017-Sep-14 03:24N 22°32' E 113°47'5 9.1
2017-Sep-14 02:53N 22°36' E 113°48'924.5
2017-Sep-14 02:30N 22°28' E 113°44'2 1.2
2017-Sep-14 00:31N 22°29' E 113°46'7 0.6
2017-Sep-13 12:52N 22°36' E 113°48'0 0.2
2017-Sep-13 12:19N 22°36' E 113°48'0 0.0
2017-Sep-13 09:15N 22°36' E 113°48'3 5.4
2017-Sep-13 08:41N 22°33' E 113°47'3 1.2
2017-Sep-13 06:01N 22°36' E 113°49'0 0.2
2017-Sep-13 05:47N 22°36' E 113°48'5 1.9
2017-Sep-13 03:17N 22°32' E 113°47'511.6
2017-Sep-13 02:52N 22°36' E 113°49'0 0.0
2017-Sep-12 12:56N 22°36' E 113°48'0 0.2
2017-Sep-12 12:19N 22°36' E 113°48'823.8
2017-Sep-12 11:58N 22°28' E 113°45'9 3.2
2017-Sep-12 09:19N 22°36' E 113°48'0 0.2
2017-Sep-12 08:54N 22°36' E 113°48'5 1.8
2017-Sep-12 06:16N 22°32' E 113°47'510.3
2017-Sep-12 05:47N 22°36' E 113°49'824.1
2017-Sep-12 05:28N 22°29' E 113°46'8 2.9
2017-Sep-12 02:49N 22°36' E 113°49'2314.8
2017-Sep-12 01:15N 22°15' E 113°38'1822.6
2017-Sep-12 00:27N 22°31' E 113°47'5 0.9
2017-Sep-11 18:35N 22°36' E 113°49'0 0.0
2017-Sep-11 18:29N 22°36' E 113°49'0 0.0
2017-Sep-11 12:44N 22°36' E 113°48'0 0.1
2017-Sep-11 12:15N 22°36' E 113°49'520.4
2017-Sep-11 12:00N 22°31' E 113°47'1 0.2
2017-Sep-11 09:27N 22°32' E 113°47'5 9.5
2017-Sep-11 08:57N 22°36' E 113°49'920.0
2017-Sep-11 08:30N 22°28' E 113°45'  
Track history (hours):
 
Tides and Currents Weather Stations Pressure Air Temp Water Temp Dewpoint Dewpoint Depression Visibility Wind Speed Wind Dir Waves Ship Positions

Xun Long 5

Last reported at 2017-Sep-21 06:34 UTC. Time now 2017-Sep-21 17:39 UTC.
Position N 22°05' E 113°16'.

Length 34 m; draft 1.4 m.

Type: High speed craft. MMSI: 413471870.

Date/timePositionNaut miles runAvg speedWind from/ knotsBaromVisibWave heightAir tempDewpointWater temp
2017-Sep-21 06:34N 22°05' E 113°16'0 0.0
2017-Sep-21 03:52N 22°05' E 113°16'0 0.0
2017-Sep-21 03:13N 22°05' E 113°16'0 0.0
2017-Sep-21 02:58N 22°05' E 113°16'0 0.0
2017-Sep-21 02:28N 22°05' E 113°16'0 0.0
2017-Sep-20 22:55N 22°05' E 113°16'0 0.0
2017-Sep-20 22:25N 22°05' E 113°16'0 0.0
2017-Sep-20 11:59N 22°05' E 113°16'  
2017-Sep-17 05:23N 22°19' E 114°08'2 5.2
2017-Sep-17 05:00N 22°17' E 114°09'18 1.1
2017-Sep-16 12:51N 22°26' E 113°52'1123.6
2017-Sep-16 12:24N 22°36' E 113°49'513.2
2017-Sep-16 12:00N 22°32' E 113°46'1810.0
2017-Sep-16 10:13N 22°15' E 113°38'2315.8
2017-Sep-16 08:46N 22°36' E 113°48'725.2
2017-Sep-16 08:29N 22°30' E 113°45'7 2.5
2017-Sep-16 05:50N 22°36' E 113°48'4 1.7
2017-Sep-16 03:15N 22°32' E 113°46'411.2
2017-Sep-16 02:51N 22°36' E 113°48'1925.7
2017-Sep-16 02:08N 22°19' E 113°40'19 1.3
2017-Sep-15 12:09N 22°36' E 113°48'425.7
2017-Sep-15 12:00N 22°32' E 113°47'4 1.3
2017-Sep-15 08:55N 22°36' E 113°48'1 0.3
2017-Sep-15 06:07N 22°35' E 113°48'1 2.8
2017-Sep-15 05:53N 22°36' E 113°48'3 1.0
2017-Sep-15 02:51N 22°33' E 113°47'2 0.1
2017-Sep-14 09:30N 22°32' E 113°47'1512.4
2017-Sep-14 08:17N 22°18' E 113°39'16 6.5
2017-Sep-14 05:49N 22°33' E 113°47'1 0.5
2017-Sep-14 03:24N 22°32' E 113°47'5 9.1
2017-Sep-14 02:53N 22°36' E 113°48'924.5
2017-Sep-14 02:30N 22°28' E 113°44'2 1.2
2017-Sep-14 00:31N 22°29' E 113°46'7 0.6
2017-Sep-13 12:52N 22°36' E 113°48'0 0.2
2017-Sep-13 12:19N 22°36' E 113°48'0 0.0
2017-Sep-13 09:15N 22°36' E 113°48'3 5.4
2017-Sep-13 08:41N 22°33' E 113°47'3 1.2
2017-Sep-13 06:01N 22°36' E 113°49'0 0.2
2017-Sep-13 05:47N 22°36' E 113°48'5 1.9
2017-Sep-13 03:17N 22°32' E 113°47'511.6
2017-Sep-13 02:52N 22°36' E 113°49'0 0.0
2017-Sep-12 12:56N 22°36' E 113°48'0 0.2
2017-Sep-12 12:19N 22°36' E 113°48'823.8
2017-Sep-12 11:58N 22°28' E 113°45'9 3.2
2017-Sep-12 09:19N 22°36' E 113°48'0 0.2
2017-Sep-12 08:54N 22°36' E 113°48'5 1.8
2017-Sep-12 06:16N 22°32' E 113°47'510.3
2017-Sep-12 05:47N 22°36' E 113°49'824.1
2017-Sep-12 05:28N 22°29' E 113°46'8 2.9
2017-Sep-12 02:49N 22°36' E 113°49'2314.8
2017-Sep-12 01:15N 22°15' E 113°38'1822.6
2017-Sep-12 00:27N 22°31' E 113°47'5 0.9
2017-Sep-11 18:35N 22°36' E 113°49'0 0.0
2017-Sep-11 18:29N 22°36' E 113°49'0 0.0
2017-Sep-11 12:44N 22°36' E 113°48'0 0.1
2017-Sep-11 12:15N 22°36' E 113°49'520.4
2017-Sep-11 12:00N 22°31' E 113°47'1 0.2
2017-Sep-11 09:27N 22°32' E 113°47'5 9.5
2017-Sep-11 08:57N 22°36' E 113°49'920.0
2017-Sep-11 08:30N 22°28' E 113°45'  

Dump ship's entire track history